.
WxDataArchive / Data Records for 2007-01-17
2007-01-16 January 2007 2007-01-18

Data Records for Wednesday, 17 January 2007

Time	Temp	Chill	HIndex	Humid	Dewpt	 Wind 	HiWind	WindDir	Rain 	Barom 
-----	----	-----	------	-----	-----	------	------	-------	-----	----- 
00:00	17.2	17.2	17.2	86	13.7	0	0	---	0.00	30.636 
00:05	17.2	17.2	17.2	86	13.7	0	0	---	0.00	30.636 
00:10	17.5	17.5	17.5	86	14.0	0	0	---	0.00	30.639 
00:15	17.7	17.7	17.7	85	14.0	0	0	---	0.00	30.638 
00:20	17.8	17.8	17.8	85	14.1	0	0	---	0.00	30.641 
00:25	18.1	18.1	18.1	84	14.1	0	0	---	0.00	30.640 
00:30	18.4	18.4	18.4	84	14.4	0	0	---	0.00	30.639 
00:35	18.6	18.6	18.6	84	14.6	0	0	---	0.00	30.633 
00:40	18.8	18.8	18.8	84	14.8	0	0	---	0.00	30.631 
00:45	18.9	18.9	18.9	84	14.9	0	0	---	0.00	30.631 
00:50	18.9	18.9	18.9	84	14.9	0	0	---	0.00	30.631 
00:55	18.9	18.9	18.9	83	14.6	0	0	---	0.00	30.630 
01:00	19.1	19.1	19.1	83	14.8	0	0	---	0.00	30.630 
01:05	19.1	19.1	19.1	83	14.8	0	1	292	0.00	30.630 
01:10	19.4	19.4	19.4	82	14.8	0	1	292	0.00	30.630 
01:15	19.7	19.7	19.7	81	14.8	0	0	---	0.00	30.631 
01:20	19.9	19.9	19.9	81	15.0	0	0	---	0.00	30.632 
01:25	19.9	19.9	19.9	81	15.0	0	0	---	0.00	30.632 
01:30	19.9	19.9	19.9	81	15.0	0	0	---	0.00	30.633 
01:35	19.9	19.9	19.9	81	15.0	0	0	---	0.00	30.635 
01:40	19.9	19.9	19.9	81	15.0	0	0	---	0.00	30.636 
01:45	19.7	19.7	19.7	81	14.8	0	1	292	0.00	30.633 
01:50	19.7	19.7	19.7	81	14.8	0	1	292	0.00	30.634 
01:55	19.9	19.9	19.9	80	14.7	0	1	292	0.00	30.633 
02:00	19.9	19.9	19.9	80	14.7	0	2	292	0.00	30.637 
02:05	19.9	19.9	19.9	79	14.5	0	2	292	0.00	30.638 
02:10	19.7	19.7	19.7	79	14.3	0	1	292	0.00	30.643 
02:15	19.5	19.5	19.5	79	14.1	0	1	292	0.00	30.644 
02:20	19.4	19.4	19.4	80	14.3	0	1	292	0.00	30.648 
02:25	19.2	19.2	19.2	80	14.1	0	0	---	0.00	30.648 
02:30	19.1	19.1	19.1	80	14.0	0	1	292	0.00	30.650 
02:35	18.9	18.9	18.9	81	14.1	0	0	---	0.00	30.650 
02:40	18.8	18.8	18.8	81	14.0	0	1	292	0.00	30.652 
02:45	18.8	18.8	18.8	81	14.0	0	1	292	0.00	30.655 
02:50	18.6	18.6	18.6	82	14.0	0	2	292	0.00	30.655 
02:55	18.6	18.6	18.6	82	14.0	0	1	292	0.00	30.657 
03:00	18.6	18.6	18.6	82	14.0	0	1	292	0.00	30.659 
03:05	18.6	18.6	18.6	83	14.3	0	1	292	0.00	30.663 
03:10	18.6	18.6	18.6	83	14.3	0	1	292	0.00	30.662 
03:15	18.6	18.6	18.6	83	14.3	0	2	270	0.00	30.664 
03:20	18.4	18.4	18.4	83	14.1	0	0	---	0.00	30.664 
03:25	18.3	18.3	18.3	83	14.0	0	1	270	0.00	30.664 
03:30	18.1	18.1	18.1	84	14.1	0	0	---	0.00	30.664 
03:35	18.0	18.0	18.0	84	14.0	0	0	---	0.00	30.663 
03:40	17.8	17.8	17.8	84	13.8	0	0	---	0.00	30.663 
03:45	17.8	17.8	17.8	84	13.8	0	1	270	0.00	30.663 
03:50	17.8	17.8	17.8	85	14.1	0	1	270	0.00	30.664 
03:55	17.8	17.8	17.8	86	14.3	0	1	270	0.00	30.664 
04:00	17.8	17.8	17.8	86	14.3	0	1	270	0.00	30.663 
04:05	18.0	18.0	18.0	86	14.5	0	1	270	0.00	30.665 
04:10	18.0	18.0	18.0	86	14.5	0	2	270	0.00	30.663 
04:15	18.0	18.0	18.0	86	14.5	0	1	248	0.00	30.663 
04:20	18.0	18.0	18.0	86	14.5	0	1	248	0.00	30.662 
04:25	18.0	18.0	18.0	86	14.5	0	1	248	0.00	30.664 
04:30	17.8	17.8	17.8	86	14.3	0	1	248	0.00	30.663 
04:35	17.8	17.8	17.8	86	14.3	0	1	248	0.00	30.664 
04:40	17.7	17.7	17.7	87	14.5	0	1	248	0.00	30.664 
04:45	17.7	17.7	17.7	87	14.5	0	1	248	0.00	30.665 
04:50	17.5	17.5	17.5	87	14.3	0	1	248	0.00	30.662 
04:55	17.3	17.3	17.3	87	14.1	0	1	248	0.00	30.660 
05:00	17.3	17.3	17.3	87	14.1	0	1	248	0.00	30.658 
05:05	17.3	17.3	17.3	87	14.1	0	1	248	0.00	30.659 
05:10	17.2	17.2	17.2	87	14.0	0	1	248	0.00	30.662 
05:15	17.2	17.2	17.2	87	14.0	0	1	248	0.00	30.664 
05:20	17.2	17.2	17.2	88	14.3	0	1	248	0.00	30.664 
05:25	17.2	17.2	17.2	88	14.3	0	1	248	0.00	30.664 
05:30	17.0	17.0	17.0	88	14.1	0	0	---	0.00	30.663 
05:35	17.0	17.0	17.0	88	14.1	0	1	248	0.00	30.663 
05:40	17.0	17.0	17.0	88	14.1	0	1	248	0.00	30.667 
05:45	17.0	17.0	17.0	88	14.1	0	1	248	0.00	30.667 
05:50	17.0	17.0	17.0	88	14.1	0	2	248	0.00	30.668 
05:55	17.0	17.0	17.0	88	14.1	0	2	248	0.00	30.669 
06:00	17.0	17.0	17.0	88	14.1	0	1	248	0.00	30.667 
06:05	17.0	17.0	17.0	88	14.1	0	1	248	0.00	30.669 
06:10	16.9	16.9	16.9	88	14.0	0	1	248	0.00	30.670 
06:15	16.9	16.9	16.9	88	14.0	0	1	248	0.00	30.670 
06:20	16.7	16.7	16.7	88	13.8	0	0	---	0.00	30.670 
06:25	16.7	16.7	16.7	88	13.8	0	0	---	0.00	30.671 
06:30	16.5	16.5	16.5	88	13.6	0	1	248	0.00	30.671 
06:35	16.5	16.5	16.5	88	13.6	0	0	---	0.00	30.675 
06:40	16.5	16.5	16.5	88	13.6	0	2	248	0.00	30.677 
06:45	16.5	16.5	16.5	88	13.6	0	0	---	0.00	30.681 
06:50	16.5	16.5	16.5	88	13.6	0	1	248	0.00	30.685 
06:55	16.5	16.5	16.5	88	13.6	0	1	248	0.00	30.686 
07:00	16.5	16.5	16.5	88	13.6	0	1	248	0.00	30.686 
07:05	16.4	16.4	16.4	88	13.5	0	1	248	0.00	30.688 
07:10	16.4	16.4	16.4	88	13.5	0	0	---	0.00	30.690 
07:15	16.2	16.2	16.2	88	13.3	0	0	---	0.00	30.692 
07:20	16.2	16.2	16.2	88	13.3	0	0	---	0.00	30.692 
07:25	16.1	16.1	16.1	88	13.2	0	1	248	0.00	30.694 
07:30	16.1	16.1	16.1	88	13.2	0	0	---	0.00	30.693 
07:35	16.1	16.1	16.1	88	13.2	0	0	---	0.00	30.693 
07:40	16.1	16.1	16.1	88	13.2	0	0	---	0.00	30.694 
07:45	15.9	15.9	15.9	88	13.0	0	0	---	0.00	30.696 
07:50	15.9	15.9	15.9	88	13.0	0	1	248	0.00	30.695 
07:55	15.9	15.9	15.9	88	13.0	0	0	---	0.00	30.697 
08:00	15.9	15.9	15.9	88	13.0	0	0	---	0.00	30.698 
08:05	15.9	15.9	15.9	88	13.0	0	0	---	0.00	30.701 
08:10	15.7	15.7	15.7	88	12.8	0	0	---	0.00	30.702 
08:15	15.7	15.7	15.7	89	13.0	0	0	---	0.00	30.703 
08:20	15.9	15.9	15.9	89	13.2	0	1	248	0.00	30.704 
08:25	16.1	16.1	16.1	89	13.4	0	1	248	0.00	30.704 
08:30	16.2	16.2	16.2	89	13.5	0	0	---	0.00	30.705 
08:35	16.4	16.4	16.4	89	13.7	0	0	---	0.00	30.705 
08:40	16.7	16.7	16.7	89	14.0	0	0	---	0.00	30.705 
08:45	17.0	17.0	17.0	89	14.3	0	1	248	0.00	30.705 
08:50	17.3	17.3	17.3	89	14.6	0	1	248	0.00	30.704 
08:55	17.7	17.7	17.7	88	14.8	0	1	248	0.00	30.700 
09:00	17.8	17.8	17.8	88	14.9	0	2	248	0.00	30.699 
09:05	18.1	18.1	18.1	87	14.9	0	2	248	0.00	30.697 
09:10	18.3	18.3	18.3	86	14.8	0	2	248	0.00	30.695 
09:15	18.4	18.4	18.4	86	14.9	0	0	---	0.00	30.692 
09:20	18.6	18.6	18.6	85	14.9	0	0	---	0.00	30.691 
09:25	18.9	18.9	18.9	85	15.2	0	0	---	0.00	30.691 
09:30	19.2	19.2	19.2	85	15.4	0	2	248	0.00	30.693 
09:35	19.7	19.7	19.7	84	15.7	1	2	202	0.00	30.688 
09:40	20.2	20.2	20.2	82	15.6	0	2	180	0.00	30.689 
09:45	20.8	20.8	20.8	81	15.9	0	2	158	0.00	30.690 
09:50	21.3	21.3	21.3	81	16.4	0	1	158	0.00	30.691 
09:55	21.6	21.6	21.6	78	15.8	0	2	225	0.00	30.691 
10:00	21.6	21.6	21.6	78	15.8	0	1	225	0.00	30.691 
10:05	21.6	21.6	21.6	77	15.5	1	2	225	0.00	30.691 
10:10	21.8	21.8	21.8	76	15.4	1	3	248	0.00	30.692 
10:15	22.1	22.1	22.1	76	15.7	1	3	248	0.00	30.696 
10:20	22.2	22.2	22.2	76	15.8	1	4	248	0.00	30.698 
10:25	22.4	22.4	22.4	74	15.4	1	4	248	0.00	30.698 
10:30	22.7	22.7	22.7	74	15.7	1	4	248	0.00	30.698 
10:35	22.9	22.9	22.9	74	15.9	1	4	248	0.00	30.696 
10:40	23.0	23.0	23.0	73	15.7	1	4	248	0.00	30.698 
10:45	23.3	23.3	23.3	75	16.6	0	3	248	0.00	30.700 
10:50	23.6	23.6	23.6	74	16.6	0	2	248	0.00	30.700 
10:55	23.9	23.9	23.9	72	16.2	1	4	248	0.00	30.699 
11:00	23.9	23.9	23.9	71	15.9	1	4	248	0.00	30.699 
11:05	24.2	24.2	24.2	73	16.8	1	4	248	0.00	30.698 
11:10	24.5	24.5	24.5	71	16.5	1	5	248	0.00	30.696 
11:15	24.7	24.7	24.7	70	16.3	1	3	112	0.00	30.693 
11:20	25.0	25.0	25.0	69	16.3	1	5	248	0.00	30.692 
11:25	25.3	25.3	25.3	69	16.6	1	3	90	0.00	30.690 
11:30	25.4	25.4	25.4	68	16.3	2	6	90	0.00	30.688 
11:35	25.4	25.4	25.4	67	16.0	2	6	248	0.00	30.689 
11:40	25.3	25.3	25.3	65	15.2	3	6	248	0.00	30.691 
11:45	25.3	25.3	25.3	64	14.9	2	7	248	0.00	30.686 
11:50	25.6	25.6	25.6	64	15.1	3	10	248	0.00	30.683 
11:55	25.8	25.8	25.8	63	15.0	3	10	270	0.00	30.683 
12:00	25.8	25.8	25.8	63	15.0	3	9	270	0.00	30.680 
12:05	26.1	26.1	26.1	62	14.9	3	7	248	0.00	30.675 
12:10	26.3	26.3	26.3	62	15.1	2	7	248	0.00	30.673 
12:15	26.6	26.6	26.6	63	15.7	2	5	270	0.00	30.665 
12:20	26.7	26.7	26.7	64	16.2	2	6	90	0.00	30.662 
12:25	26.9	26.9	26.9	62	15.6	2	8	270	0.00	30.659 
12:30	27.0	27.0	27.0	62	15.7	2	6	90	0.00	30.654 
12:35	26.9	26.9	26.9	60	14.9	3	7	248	0.00	30.650 
12:40	26.7	26.7	26.7	61	15.1	2	6	248	0.00	30.647 
12:45	27.2	27.2	27.2	63	16.3	2	5	248	0.00	30.648 
12:50	27.2	27.2	27.2	62	15.9	2	6	270	0.00	30.647 
12:55	27.3	27.3	27.3	61	15.7	3	7	270	0.00	30.646 
13:00	27.2	27.2	27.2	60	15.2	3	8	248	0.00	30.645 
13:05	27.3	27.3	27.3	61	15.7	3	9	270	0.00	30.644 
13:10	27.6	27.6	27.6	62	16.3	2	5	90	0.00	30.641 
13:15	27.8	27.8	27.8	61	16.1	1	5	112	0.00	30.633 
13:20	27.8	27.8	27.8	60	15.7	2	11	90	0.00	30.631 
13:25	28.2	28.2	28.2	61	16.5	2	6	135	0.00	30.630 
13:30	27.9	27.9	27.9	62	16.6	2	6	248	0.00	30.628 
13:35	27.9	27.9	27.9	61	16.2	2	5	270	0.00	30.626 
13:40	28.1	28.1	28.1	61	16.4	2	6	248	0.00	30.622 
13:45	28.1	28.1	28.1	59	15.6	3	9	248	0.00	30.615 
13:50	28.2	28.2	28.2	60	16.1	2	6	90	0.00	30.612 
13:55	28.2	28.2	28.2	59	15.7	2	5	90	0.00	30.608 
14:00	28.2	28.2	28.2	59	15.7	2	7	90	0.00	30.603 
14:05	28.2	28.2	28.2	59	15.7	3	10	90	0.00	30.602 
14:10	28.4	28.4	28.4	59	15.9	2	9	248	0.00	30.601 
14:15	28.5	28.5	28.5	60	16.4	2	6	270	0.00	30.596 
14:20	28.5	28.5	28.5	59	16.0	2	6	90	0.00	30.597 
14:25	28.5	28.5	28.5	61	16.8	2	7	90	0.00	30.596 
14:30	28.8	28.8	28.8	59	16.3	3	10	248	0.00	30.595 
14:35	28.7	28.7	28.7	58	15.8	2	6	90	0.00	30.593 
14:40	28.8	28.8	28.8	60	16.7	2	7	90	0.00	30.592 
14:45	29.0	29.0	29.0	58	16.1	1	4	270	0.00	30.592 
14:50	29.1	29.1	29.1	57	15.8	1	6	270	0.00	30.592 
14:55	29.0	29.0	29.0	54	14.5	3	8	90	0.00	30.584 
15:00	29.0	29.0	29.0	56	15.3	2	5	90	0.00	30.585 
15:05	29.0	29.0	29.0	56	15.3	1	2	90	0.00	30.584 
15:10	29.1	29.1	29.1	56	15.4	1	4	22	0.00	30.584 
15:15	29.3	29.3	29.3	55	15.2	2	5	112	0.00	30.583 
15:20	29.4	29.4	29.4	54	14.8	2	4	90	0.00	30.583 
15:25	29.4	29.4	29.4	55	15.3	1	2	68	0.00	30.581 
15:30	29.4	29.4	29.4	55	15.3	1	3	45	0.00	30.580 
15:35	29.5	29.5	29.5	54	14.9	1	5	22	0.00	30.575 
15:40	29.5	29.5	29.5	55	15.3	1	6	22	0.00	30.575 
15:45	29.5	29.5	29.5	56	15.8	2	7	248	0.00	30.569 
15:50	29.3	29.3	29.3	55	15.2	1	4	90	0.00	30.572 
15:55	29.3	29.3	29.3	55	15.2	3	6	90	0.00	30.574 
16:00	29.7	29.7	29.7	56	15.9	2	4	248	0.00	30.576 
16:05	29.8	29.8	29.8	55	15.6	2	6	248	0.00	30.581 
16:10	29.5	29.5	29.5	57	16.2	1	4	112	0.00	30.578 
16:15	29.4	29.4	29.4	56	15.7	1	3	112	0.00	30.571 
16:20	29.4	29.4	29.4	56	15.7	2	5	270	0.00	30.568 
16:25	29.4	29.4	29.4	57	16.1	1	4	248	0.00	30.564 
16:30	29.3	29.3	29.3	56	15.6	2	4	90	0.00	30.565 
16:35	29.1	29.1	29.1	56	15.4	2	6	248	0.00	30.564 
16:40	29.1	29.1	29.1	56	15.4	2	4	248	0.00	30.562 
16:45	29.0	29.0	29.0	57	15.7	1	3	135	0.00	30.555 
16:50	28.8	28.8	28.8	58	15.9	1	4	90	0.00	30.555 
16:55	28.5	28.5	28.5	59	16.0	0	2	22	0.00	30.557 
17:00	28.4	28.4	28.4	59	15.9	0	2	0	0.00	30.558 
17:05	28.4	28.4	28.4	60	16.3	1	3	270	0.00	30.560 
17:10	28.1	28.1	28.1	60	16.0	0	2	292	0.00	30.558 
17:15	27.9	27.9	27.9	60	15.8	1	3	22	0.00	30.557 
17:20	27.6	27.6	27.6	61	15.9	0	3	45	0.00	30.558 
17:25	27.5	27.5	27.5	62	16.2	0	3	90	0.00	30.556 
17:30	27.2	27.2	27.2	62	15.9	0	2	225	0.00	30.554 
17:35	27.0	27.0	27.0	63	16.1	0	2	225	0.00	30.553 
17:40	26.9	26.9	26.9	63	16.0	1	2	112	0.00	30.554 
17:45	26.9	26.9	26.9	64	16.4	0	1	90	0.00	30.554 
17:50	26.6	26.6	26.6	64	16.1	0	1	90	0.00	30.555 
17:55	26.4	26.4	26.4	65	16.3	0	1	90	0.00	30.556 
18:00	26.1	26.1	26.1	65	16.0	0	0	---	0.00	30.555 
18:05	26.0	26.0	26.0	65	15.9	0	3	180	0.00	30.555 
18:10	26.0	26.0	26.0	66	16.2	0	1	158	0.00	30.554 
18:15	26.0	26.0	26.0	66	16.2	0	1	158	0.00	30.555 
18:20	26.0	26.0	26.0	66	16.2	0	2	158	0.00	30.554 
18:25	25.8	25.8	25.8	66	16.0	0	0	---	0.00	30.555 
18:30	25.8	25.8	25.8	67	16.4	0	1	112	0.00	30.554 
18:35	25.7	25.7	25.7	67	16.3	0	2	112	0.00	30.552 
18:40	25.8	25.8	25.8	67	16.4	0	2	112	0.00	30.547 
18:45	25.8	25.8	25.8	67	16.4	0	2	112	0.00	30.545 
18:50	25.8	25.8	25.8	67	16.4	0	1	112	0.00	30.542 
18:55	25.8	25.8	25.8	68	16.7	0	1	112	0.00	30.542 
19:00	25.7	25.7	25.7	68	16.6	0	1	112	0.00	30.541 
19:05	25.6	25.6	25.6	69	16.9	0	1	112	0.00	30.541 
19:10	25.4	25.4	25.4	69	16.7	0	0	---	0.00	30.540 
19:15	25.3	25.3	25.3	69	16.6	0	0	---	0.00	30.541 
19:20	25.0	25.0	25.0	70	16.6	0	0	---	0.00	30.540 
19:25	24.7	24.7	24.7	71	16.7	0	0	---	0.00	30.539 
19:30	24.4	24.4	24.4	71	16.4	0	0	---	0.00	30.537 
19:35	23.9	23.9	23.9	72	16.2	0	0	---	0.00	30.533 
19:40	23.6	23.6	23.6	74	16.6	0	0	---	0.00	30.537 
19:45	23.3	23.3	23.3	75	16.6	0	0	---	0.00	30.533 
19:50	23.0	23.0	23.0	75	16.3	0	0	---	0.00	30.532 
19:55	22.7	22.7	22.7	77	16.6	0	0	---	0.00	30.528 
20:00	22.4	22.4	22.4	77	16.3	0	0	---	0.00	30.527 
20:05	22.2	22.2	22.2	77	16.1	0	0	---	0.00	30.524 
20:10	21.9	21.9	21.9	78	16.1	0	0	---	0.00	30.518 
20:15	21.8	21.8	21.8	79	16.3	0	0	---	0.00	30.516 
20:20	21.4	21.4	21.4	79	15.9	0	0	---	0.00	30.514 
20:25	21.3	21.3	21.3	80	16.1	0	0	---	0.00	30.516 
20:30	21.1	21.1	21.1	80	15.9	0	0	---	0.00	30.513 
20:35	21.0	21.0	21.0	81	16.1	0	0	---	0.00	30.513 
20:40	20.8	20.8	20.8	81	15.9	0	0	---	0.00	30.512 
20:45	20.6	20.6	20.6	81	15.7	0	0	---	0.00	30.512 
20:50	20.5	20.5	20.5	81	15.6	0	0	---	0.00	30.509 
20:55	20.3	20.3	20.3	82	15.7	0	0	---	0.00	30.509 
21:00	20.2	20.2	20.2	83	15.9	0	0	---	0.00	30.506 
21:05	20.2	20.2	20.2	83	15.9	0	0	---	0.00	30.497 
21:10	20.2	20.2	20.2	83	15.9	0	0	---	0.00	30.494 
21:15	20.0	20.0	20.0	83	15.7	0	0	---	0.00	30.491 
21:20	19.9	19.9	19.9	84	15.9	0	0	---	0.00	30.488 
21:25	19.9	19.9	19.9	83	15.6	0	0	---	0.00	30.484 
21:30	19.7	19.7	19.7	83	15.4	0	0	---	0.00	30.485 
21:35	19.5	19.5	19.5	84	15.5	0	0	---	0.00	30.480 
21:40	19.7	19.7	19.7	85	15.9	0	0	---	0.00	30.478 
21:45	19.9	19.9	19.9	84	15.9	0	0	---	0.00	30.476 
21:50	20.2	20.2	20.2	85	16.4	0	1	112	0.00	30.475 
21:55	20.6	20.6	20.6	83	16.3	0	1	112	0.00	30.474 
22:00	20.8	20.8	20.8	83	16.5	0	0	---	0.00	30.475 
22:05	21.0	21.0	21.0	82	16.4	0	0	---	0.00	30.472 
22:10	21.0	21.0	21.0	82	16.4	0	0	---	0.00	30.468 
22:15	21.0	21.0	21.0	81	16.1	0	0	---	0.00	30.465 
22:20	20.8	20.8	20.8	82	16.2	0	0	---	0.00	30.462 
22:25	21.0	21.0	21.0	82	16.4	0	1	112	0.00	30.459 
22:30	21.3	21.3	21.3	82	16.7	0	1	112	0.00	30.458 
22:35	21.4	21.4	21.4	81	16.5	0	0	---	0.00	30.457 
22:40	21.6	21.6	21.6	81	16.7	0	1	112	0.00	30.454 
22:45	21.8	21.8	21.8	81	16.9	0	1	112	0.00	30.448 
22:50	21.8	21.8	21.8	81	16.9	0	1	112	0.00	30.445 
22:55	21.9	21.9	21.9	81	17.0	0	1	112	0.00	30.440 
23:00	21.8	21.8	21.8	81	16.9	0	1	112	0.00	30.437 
23:05	21.8	21.8	21.8	81	16.9	0	1	112	0.00	30.430 
23:10	21.8	21.8	21.8	80	16.6	0	1	112	0.00	30.428 
23:15	21.8	21.8	21.8	81	16.9	0	1	112	0.00	30.427 
23:20	21.8	21.8	21.8	80	16.6	0	1	112	0.00	30.425 
23:25	21.8	21.8	21.8	80	16.6	0	1	112	0.00	30.425 
23:30	21.8	21.8	21.8	80	16.6	0	2	135	0.00	30.423 
23:35	21.9	21.9	21.9	80	16.7	0	2	135	0.00	30.424 
23:40	22.2	22.2	22.2	80	17.0	0	1	135	0.00	30.423 
23:45	22.2	22.2	22.2	79	16.7	0	1	135	0.00	30.422 
23:50	22.4	22.4	22.4	79	16.9	0	1	135	0.00	30.419 
23:55	22.4	22.4	22.4	79	16.9	0	1	135	0.00	30.418 

CoCoRaHS
IN-AL-39
A2 Web Hosting
Creative Commons License
GoDaddy
Look for:

loaded 2017-10-16 20:27:31 • last modified 2010-11-18 10:43:29
Privacy PolicyDisclaimer
• wx.awcolley.com is powered by PmWiki v.2002016 •
• all content (unless otherwise noted) © 2017 A W Colley